Time;durP1;ratioP1;P1;durP2;ratioP2;P2;SDS_P1;SDS_P2;PMS_P1;PMS_P2;Temp;Humidity;BMP_temperature;BMP_pressure;BME280_temperature;BME280_humidity;BME280_pressure;Samples;Min_cycle;Max_cycle;Signal;HPM_P1;HPM_P2
2021/11/04 00:00:25;;;;;;;3.70;2.80;;;18.00;61.10;;;;;;10501906;28;20234;-64
2021/11/04 00:05:47;;;;;;;3.20;2.73;;;18.00;61.20;;;;;;10483033;28;20220;-63
2021/11/04 00:11:09;;;;;;;3.77;3.13;;;18.00;61.20;;;;;;10460014;28;20208;-60
2021/11/04 00:16:32;;;;;;;4.70;3.30;;;18.00;61.00;;;;;;10452107;28;20193;-61
2021/11/04 00:21:55;;;;;;;3.30;2.90;;;18.00;60.80;;;;;;10452597;28;20688;-64
2021/11/04 00:27:17;;;;;;;3.23;2.83;;;18.10;60.80;;;;;;10487720;28;20290;-61
2021/11/04 00:32:47;;;;;;;3.27;2.70;;;18.10;60.90;;;;;;10491950;28;20235;-63
2021/11/04 00:38:09;;;;;;;3.37;2.80;;;18.10;61.10;;;;;;10494019;28;20540;-64
2021/11/04 00:43:31;;;;;;;3.20;2.90;;;18.00;61.20;;;;;;10501294;28;20212;-64
2021/11/04 00:48:54;;;;;;;3.73;3.30;;;18.00;61.30;;;;;;10501766;28;20204;-64
2021/11/04 00:54:17;;;;;;;3.70;2.83;;;18.00;61.40;;;;;;10501727;28;20587;-63
2021/11/04 00:59:39;;;;;;;2.83;2.63;;;18.00;61.30;;;;;;10467153;28;20209;-64
2021/11/04 01:05:03;;;;;;;4.70;3.10;;;18.00;61.20;;;;;;10469645;28;20197;-63
2021/11/04 01:10:25;;;;;;;4.03;2.87;;;18.00;61.20;;;;;;10488700;28;20216;-64
2021/11/04 01:15:47;;;;;;;3.10;2.80;;;18.00;61.20;;;;;;10479821;28;20216;-64
2021/11/04 01:21:11;;;;;;;3.03;2.73;;;18.00;61.20;;;;;;10458441;28;20607;-64
2021/11/04 01:26:33;;;;;;;3.43;3.13;;;18.00;61.00;;;;;;10489827;28;20193;-64
2021/11/04 01:31:55;;;;;;;3.37;3.07;;;18.00;60.90;;;;;;10499423;28;20247;-64
2021/11/04 01:37:19;;;;;;;3.07;2.77;;;18.00;61.00;;;;;;10500039;28;20196;-63
2021/11/04 01:42:41;;;;;;;2.80;2.57;;;18.00;61.10;;;;;;10499387;28;20224;-64
2021/11/04 01:48:04;;;;;;;3.10;2.80;;;18.00;61.30;;;;;;10499273;28;20691;-63
2021/11/04 01:53:28;;;;;;;3.97;3.33;;;17.90;61.40;;;;;;10497776;28;20228;-64
2021/11/04 01:58:50;;;;;;;3.80;3.40;;;17.90;61.40;;;;;;10491226;28;20188;-64
2021/11/04 02:04:18;;;;;;;4.60;3.60;;;17.90;61.40;;;;;;10491981;28;20216;-64
2021/11/04 02:09:48;;;;;;;4.10;3.47;;;18.00;61.10;;;;;;10497033;28;20213;-63
2021/11/04 02:15:11;;;;;;;3.67;2.83;;;18.00;60.90;;;;;;10498336;28;20597;-64
2021/11/04 02:20:43;;;;;;;3.97;3.30;;;18.00;60.90;;;;;;10497789;28;20227;-63
2021/11/04 02:26:07;;;;;;;4.13;3.30;;;18.00;61.10;;;;;;10462290;28;20189;-63
2021/11/04 02:31:30;;;;;;;3.93;3.27;;;18.00;61.00;;;;;;10477258;28;20882;-63
2021/11/04 02:36:52;;;;;;;3.37;2.83;;;18.00;60.80;;;;;;10497679;28;20188;-64
2021/11/04 02:42:16;;;;;;;3.83;2.90;;;18.00;60.60;;;;;;10496921;28;20244;-64
2021/11/04 02:47:38;;;;;;;4.10;3.00;;;18.00;60.70;;;;;;10497113;28;20675;-64
2021/11/04 02:53:00;;;;;;;3.30;2.73;;;18.00;60.80;;;;;;10484177;28;20622;-63
2021/11/04 02:58:25;;;;;;;3.07;2.77;;;18.00;61.00;;;;;;10455212;28;20200;-62
2021/11/04 03:03:47;;;;;;;3.27;2.97;;;17.90;61.20;;;;;;10461436;28;20231;-62
2021/11/04 03:09:10;;;;;;;3.53;3.23;;;17.90;61.30;;;;;;10488078;28;20560;-63
2021/11/04 03:14:34;;;;;;;3.37;3.07;;;17.90;61.20;;;;;;10463433;28;20224;-63
2021/11/04 03:19:56;;;;;;;3.60;3.10;;;18.00;60.90;;;;;;10453651;28;20213;-63
2021/11/04 03:25:20;;;;;;;3.43;3.13;;;18.00;60.80;;;;;;10476149;28;20264;-63
2021/11/04 03:30:45;;;;;;;2.90;2.60;;;18.00;60.80;;;;;;10453815;28;20216;-64
2021/11/04 03:36:08;;;;;;;4.73;2.90;;;18.00;60.90;;;;;;10453785;28;20213;-64
2021/11/04 03:41:31;;;;;;;3.47;3.07;;;18.00;60.80;;;;;;10507470;28;20215;-64
2021/11/04 03:46:56;;;;;;;3.20;2.87;;;18.00;60.60;;;;;;10539765;28;20621;-63
2021/11/04 03:52:20;;;;;;;2.70;2.50;;;18.00;60.60;;;;;;10535892;28;20215;-63
2021/11/04 03:57:42;;;;;;;2.87;2.30;;;18.00;60.70;;;;;;10535902;28;20276;-63
2021/11/04 04:03:06;;;;;;;2.53;2.33;;;18.00;60.90;;;;;;10527880;28;20684;-63
2021/11/04 04:08:28;;;;;;;2.83;2.53;;;17.90;61.00;;;;;;10486077;28;20664;-64
2021/11/04 04:13:51;;;;;;;2.73;2.20;;;17.90;61.20;;;;;;10498031;28;20223;-62
2021/11/04 04:19:15;;;;;;;2.67;2.47;;;17.90;61.30;;;;;;10508008;28;20192;-62
2021/11/04 04:24:37;;;;;;;3.33;2.67;;;18.00;61.10;;;;;;10484884;28;20193;-62
2021/11/04 04:29:59;;;;;;;3.07;2.60;;;18.00;60.80;;;;;;10464764;28;20679;-62
2021/11/04 04:35:22;;;;;;;3.00;2.70;;;18.00;60.60;;;;;;10476053;28;20581;-63
2021/11/04 04:40:45;;;;;;;3.33;2.30;;;18.00;60.70;;;;;;10476391;28;20224;-62
2021/11/04 04:46:07;;;;;;;2.33;1.67;;;18.00;60.70;;;;;;10465463;28;20687;-60
2021/11/04 04:51:30;;;;;;;2.63;1.63;;;18.10;61.10;;;;;;10505035;28;20224;-62
2021/11/04 04:56:53;;;;;;;1.63;1.53;;;18.20;61.10;;;;;;10507060;28;20223;-63
2021/11/04 05:02:15;;;;;;;1.47;1.30;;;18.20;60.90;;;;;;10503154;28;20580;-63
2021/11/04 05:07:39;;;;;;;2.57;1.93;;;18.30;60.70;;;;;;10476991;28;20198;-64
2021/11/04 05:13:01;;;;;;;3.20;1.90;;;18.30;60.00;;;;;;10506711;28;20211;-63
2021/11/04 05:18:23;;;;;;;3.53;2.17;;;18.30;59.60;;;;;;10506952;28;20192;-62
2021/11/04 05:23:46;;;;;;;4.23;2.33;;;18.30;59.40;;;;;;10490731;28;20223;-62
2021/11/04 05:29:08;;;;;;;2.67;2.00;;;18.30;59.40;;;;;;10457989;28;20571;-62
2021/11/04 05:34:30;;;;;;;1.70;1.60;;;18.30;59.60;;;;;;10457688;28;20221;-63
2021/11/04 05:39:54;;;;;;;1.93;1.70;;;18.30;59.80;;;;;;10467271;28;20220;-63
2021/11/04 05:45:16;;;;;;;2.40;2.20;;;18.40;60.20;;;;;;10499467;28;20192;-62
2021/11/04 05:50:38;;;;;;;2.63;2.43;;;18.30;59.20;;;;;;10499006;28;20699;-63
2021/11/04 05:56:02;;;;;;;1.83;1.73;;;18.30;59.20;;;;;;10526886;22;20239;-66
2021/11/04 06:01:28;;;;;;;1.50;1.40;;;18.40;60.30;;;;;;10540111;28;20249;-66
2021/11/04 06:06:50;;;;;;;2.17;1.97;;;18.30;61.00;;;;;;10525996;28;20208;-66
2021/11/04 06:12:14;;;;;;;3.50;3.20;;;18.40;60.60;;;;;;10524541;28;20207;-66
2021/11/04 06:17:36;;;;;;;2.10;1.90;;;18.40;59.30;;;;;;10519311;28;20212;-65
2021/11/04 06:22:58;;;;;;;3.23;2.90;;;18.40;59.80;;;;;;10465439;28;20195;-66
2021/11/04 06:28:21;;;;;;;4.33;2.80;;;18.40;59.60;;;;;;10511163;28;20580;-65
2021/11/04 06:33:43;;;;;;;4.67;3.80;;;18.30;59.70;;;;;;10530108;28;20280;-66
2021/11/04 06:39:05;;;;;;;3.63;2.83;;;18.30;59.80;;;;;;10516467;28;20227;-65
2021/11/04 06:44:29;;;;;;;3.30;2.97;;;18.20;59.80;;;;;;10496327;28;20212;-65
2021/11/04 06:49:52;;;;;;;3.20;2.90;;;18.20;60.00;;;;;;10496170;28;20196;-65
2021/11/04 06:55:16;;;;;;;2.63;2.43;;;18.10;60.10;;;;;;10494865;28;20595;-66
2021/11/04 07:00:42;;;;;;;2.97;2.57;;;18.10;60.30;;;;;;10495237;28;20196;-65
2021/11/04 07:06:08;;;;;;;3.10;2.70;;;18.00;60.40;;;;;;10494792;28;20204;-65
2021/11/04 07:11:32;;;;;;;2.80;2.60;;;18.00;60.50;;;;;;10504932;28;20195;-66
2021/11/04 07:16:56;;;;;;;3.63;2.30;;;18.00;60.60;;;;;;10484956;28;20602;-66
2021/11/04 07:22:26;;;;;;;2.27;2.07;;;18.10;60.80;;;;;;10460067;28;20195;-69
2021/11/04 07:27:54;;;;;;;1.73;1.50;;;18.10;60.80;;;;;;10499281;28;20679;-68
2021/11/04 07:33:20;;;;;;;1.63;1.53;;;18.10;61.20;;;;;;10466320;28;20220;-68
2021/11/04 07:38:44;;;;;;;1.40;1.30;;;18.10;61.50;;;;;;10457761;28;20288;-71
2021/11/04 07:44:06;;;;;;;1.50;1.13;;;18.20;61.60;;;;;;10471565;28;20215;-69
2021/11/04 07:49:30;;;;;;;1.73;1.10;;;18.20;61.50;;;;;;10474241;28;20583;-69
2021/11/04 07:54:52;;;;;;;1.67;1.23;;;18.20;61.50;;;;;;10487765;28;20224;-69
2021/11/04 08:00:17;;;;;;;1.50;1.40;;;18.30;61.50;;;;;;10468489;28;20263;-69
2021/11/04 08:05:40;;;;;;;2.20;1.57;;;18.30;61.40;;;;;;10467844;28;20638;-69
2021/11/04 08:11:03;;;;;;;1.27;1.17;;;18.30;61.30;;;;;;10463032;28;20200;-67
2021/11/04 08:16:25;;;;;;;1.40;1.30;;;18.30;61.30;;;;;;10475441;28;20588;-68
2021/11/04 08:21:48;;;;;;;1.70;1.30;;;18.30;61.30;;;;;;10458137;28;20204;-68
2021/11/04 08:27:11;;;;;;;1.33;0.90;;;18.30;61.40;;;;;;10464239;28;20223;-68
2021/11/04 08:32:33;;;;;;;1.37;1.10;;;18.30;61.30;;;;;;10469488;28;20201;-67
2021/11/04 08:37:57;;;;;;;1.10;1.00;;;18.30;61.30;;;;;;10462008;28;20728;-66
2021/11/04 08:43:19;;;;;;;1.63;1.10;;;18.30;61.30;;;;;;10475644;28;20196;-67
2021/11/04 08:48:41;;;;;;;2.80;1.10;;;18.30;61.10;;;;;;10461933;28;20189;-66
2021/11/04 08:54:04;;;;;;;0.93;0.90;;;18.30;61.10;;;;;;10457918;28;20228;-66
2021/11/04 08:59:26;;;;;;;1.87;1.57;;;18.30;60.80;;;;;;10451667;28;20193;-67
2021/11/04 09:04:49;;;;;;;1.47;1.37;;;18.30;60.40;;;;;;10458337;28;20216;-66
2021/11/04 09:10:15;;;;;;;1.17;1.07;;;18.30;60.30;;;;;;10497647;28;20207;-66
2021/11/04 09:15:39;;;;;;;1.77;1.10;;;18.30;60.30;;;;;;10492927;28;20224;-67
2021/11/04 09:21:01;;;;;;;1.87;1.10;;;18.30;60.40;;;;;;10477203;28;20201;-65
2021/11/04 09:26:24;;;;;;;1.67;1.10;;;18.30;60.30;;;;;;10504870;28;20228;-66
2021/11/04 09:31:46;;;;;;;1.20;1.10;;;18.30;60.10;;;;;;10474280;28;20204;-66
2021/11/04 09:37:09;;;;;;;1.30;1.17;;;18.30;60.30;;;;;;10481767;28;20216;-66
2021/11/04 09:42:32;;;;;;;1.20;1.10;;;18.30;60.40;;;;;;10497842;28;20197;-65
2021/11/04 09:47:55;;;;;;;1.23;1.13;;;18.30;60.40;;;;;;10473878;28;20217;-67
2021/11/04 09:53:17;;;;;;;3.00;1.67;;;18.30;60.50;;;;;;10474468;28;20259;-71
2021/11/04 09:58:41;;;;;;;2.03;1.83;;;18.30;59.70;;;;;;10472545;28;20192;-69
2021/11/04 10:04:04;;;;;;;1.80;1.30;;;18.40;59.40;;;;;;10460754;28;20212;-68
2021/11/04 10:09:28;;;;;;;2.07;1.27;;;18.50;59.90;;;;;;10484777;28;20193;-72
2021/11/04 10:14:51;;;;;;;2.63;1.40;;;18.50;59.80;;;;;;10471525;28;20221;-69
2021/11/04 10:20:15;;;;;;;1.80;1.50;;;18.50;59.40;;;;;;10461073;28;20280;-70
2021/11/04 10:25:38;;;;;;;1.70;1.60;;;18.50;59.10;;;;;;10512031;28;20583;-70
2021/11/04 10:31:02;;;;;;;1.83;1.60;;;18.50;59.10;;;;;;10472239;28;20200;-69
2021/11/04 10:36:26;;;;;;;1.83;1.73;;;18.50;59.20;;;;;;10497252;28;20228;-72
2021/11/04 10:41:49;;;;;;;2.97;1.90;;;18.50;59.20;;;;;;10463465;28;20197;-70
2021/11/04 10:47:18;;;;;;;2.40;2.20;;;18.50;59.40;;;;;;10477828;28;20212;-70
2021/11/04 10:52:40;;;;;;;1.60;1.50;;;18.40;59.40;;;;;;10470884;28;20192;-70
2021/11/04 10:58:06;;;;;;;1.40;1.23;;;18.40;59.60;;;;;;10474563;28;20220;-68
2021/11/04 11:03:30;;;;;;;2.43;1.80;;;18.50;59.90;;;;;;10462875;28;20620;-69
2021/11/04 11:08:52;;;;;;;1.40;1.30;;;18.50;59.50;;;;;;10470946;28;20216;-72
2021/11/04 11:14:15;;;;;;;1.57;1.47;;;18.50;59.50;;;;;;10467627;28;20221;-72
2021/11/04 11:19:43;;;;;;;2.03;1.60;;;18.50;59.50;;;;;;10511871;28;20272;-70
2021/11/04 11:25:06;;;;;;;1.47;1.37;;;18.50;59.60;;;;;;10495876;28;20204;-70
2021/11/04 11:30:28;;;;;;;1.93;1.67;;;18.50;60.00;;;;;;10472064;28;20223;-69
2021/11/04 11:36:11;;;;;;;2.63;2.10;;;18.50;59.60;;;;;;10471410;28;20220;-68
2021/11/04 11:41:41;;;;;;;2.57;1.80;;;18.50;59.10;;;;;;10471807;28;20201;-67
2021/11/04 11:47:05;;;;;;;2.40;2.03;;;18.50;59.20;;;;;;10451396;28;20393;-68
2021/11/04 11:52:48;;;;;;;2.40;1.77;;;18.50;59.30;;;;;;10452117;28;20193;-69
2021/11/04 11:58:26;;;;;;;1.83;1.70;;;18.50;59.60;;;;;;10508575;22;20230;-67
2021/11/04 12:03:54;;;;;;;2.10;1.90;;;18.40;59.90;;;;;;10517032;28;20189;-67
2021/11/04 12:09:37;;;;;;;1.70;1.50;;;18.40;60.00;;;;;;10522805;28;20207;-66
2021/11/04 12:15:00;;;;;;;2.90;1.63;;;18.50;60.00;;;;;;10520709;28;20219;-68
2021/11/04 12:20:22;;;;;;;1.90;1.67;;;18.40;60.00;;;;;;10531662;28;20385;-68
2021/11/04 12:25:48;;;;;;;2.60;1.77;;;18.40;60.20;;;;;;10522200;28;20215;-68
2021/11/04 12:31:19;;;;;;;1.40;1.30;;;18.50;60.30;;;;;;10517297;28;20556;-68
2021/11/04 12:36:43;;;;;;;1.70;1.40;;;18.50;61.00;;;;;;10532745;28;20222;-68
2021/11/04 12:42:07;;;;;;;1.43;1.13;;;18.50;61.00;;;;;;10540658;28;20203;-68
2021/11/04 12:47:30;;;;;;;1.53;1.43;;;18.50;60.20;;;;;;10538985;28;20697;-68
2021/11/04 12:53:01;;;;;;;2.63;1.70;;;18.50;60.00;;;;;;10477394;28;20685;-69
2021/11/04 12:58:25;;;;;;;1.60;1.50;;;18.50;60.10;;;;;;10412130;28;20597;-68
2021/11/04 13:03:47;;;;;;;1.63;1.50;;;18.60;59.90;;;;;;10396997;28;20198;-69
2021/11/04 13:09:09;;;;;;;1.90;1.40;;;18.60;60.40;;;;;;10412472;28;20221;-68
2021/11/04 13:14:50;;;;;;;1.50;1.37;;;18.50;59.90;;;;;;10414331;28;20697;-69
2021/11/04 13:20:15;;;;;;;2.17;1.33;;;18.50;60.00;;;;;;10413465;28;20194;-69
2021/11/04 13:25:39;;;;;;;1.40;1.27;;;18.50;60.10;;;;;;10404490;28;20222;-68
2021/11/04 13:31:10;;;;;;;1.73;1.50;;;18.40;60.20;;;;;;10400998;28;20225;-68
2021/11/04 13:36:32;;;;;;;1.30;1.20;;;18.40;60.60;;;;;;10396938;28;20596;-69
2021/11/04 13:41:55;;;;;;;2.03;1.47;;;18.40;60.80;;;;;;10403357;28;20576;-69
2021/11/04 13:47:32;;;;;;;2.70;1.23;;;18.40;61.10;;;;;;10407383;28;20225;-68
2021/11/04 13:52:55;;;;;;;1.70;1.40;;;18.40;61.50;;;;;;10398636;28;20205;-68
2021/11/04 13:58:18;;;;;;;1.57;1.10;;;18.30;61.60;;;;;;10411970;28;20229;-68
2021/11/04 14:03:42;;;;;;;2.27;1.10;;;18.30;61.60;;;;;;10404904;28;20565;-68
2021/11/04 14:09:04;;;;;;;1.60;1.43;;;18.30;61.60;;;;;;10392304;28;20697;-69
2021/11/04 14:14:26;;;;;;;2.57;1.17;;;18.30;61.70;;;;;;10410192;28;20221;-69
2021/11/04 14:19:50;;;;;;;1.90;1.40;;;18.20;61.80;;;;;;10411260;28;20224;-68
2021/11/04 14:25:12;;;;;;;2.53;1.27;;;18.30;62.20;;;;;;10409715;28;20688;-69
2021/11/04 14:30:36;;;;;;;1.60;1.33;;;18.20;62.30;;;;;;10398872;28;20220;-69
2021/11/04 14:36:00;;;;;;;1.83;1.40;;;18.20;62.30;;;;;;10406666;28;20693;-68
2021/11/04 14:41:22;;;;;;;2.10;1.67;;;18.20;62.40;;;;;;10408656;28;20732;-69
2021/11/04 14:46:44;;;;;;;4.23;2.07;;;18.30;62.20;;;;;;10412946;28;20217;-69
2021/11/04 14:52:08;;;;;;;2.03;1.53;;;18.30;62.20;;;;;;10409606;28;20197;-67
2021/11/04 14:57:30;;;;;;;3.13;1.60;;;18.40;63.20;;;;;;10411983;28;20222;-68
2021/11/04 15:02:52;;;;;;;2.60;1.50;;;18.50;62.80;;;;;;10407252;28;20582;-69
2021/11/04 15:08:16;;;;;;;1.50;1.40;;;18.50;62.00;;;;;;10412495;28;20716;-69
2021/11/04 15:13:38;;;;;;;1.83;1.23;;;18.60;61.60;;;;;;10411656;28;20212;-69
2021/11/04 15:19:02;;;;;;;1.33;1.23;;;18.50;62.00;;;;;;10407800;28;20226;-70
2021/11/04 15:24:26;;;;;;;1.30;1.20;;;18.60;62.40;;;;;;10410841;28;20307;-70
2021/11/04 15:29:48;;;;;;;2.20;1.80;;;18.50;61.90;;;;;;10408785;28;20218;-70
2021/11/04 15:35:10;;;;;;;2.70;2.20;;;18.60;62.00;;;;;;10409187;28;20221;-69
2021/11/04 15:40:34;;;;;;;2.00;1.80;;;18.60;61.20;;;;;;10408722;28;20242;-69
2021/11/04 15:45:56;;;;;;;4.70;3.57;;;18.60;60.70;;;;;;10410674;28;20240;-69
2021/11/04 15:51:18;;;;;;;4.37;3.40;;;18.60;60.90;;;;;;10410165;28;20569;-70
2021/11/04 15:56:41;;;;;;;4.83;3.10;;;18.50;60.20;;;;;;10410299;28;20217;-70
2021/11/04 16:02:04;;;;;;;4.60;3.20;;;18.50;60.20;;;;;;10409303;28;20201;-69
2021/11/04 16:07:26;;;;;;;7.87;5.57;;;18.50;60.30;;;;;;10405378;28;20218;-69
2021/11/04 16:12:50;;;;;;;5.83;4.87;;;18.40;60.60;;;;;;10407869;28;20627;-70
2021/11/04 16:18:12;;;;;;;4.17;3.13;;;18.40;60.90;;;;;;10410322;28;20227;-70
2021/11/04 16:23:34;;;;;;;8.87;6.63;;;18.40;61.00;;;;;;10409190;28;20276;-70
2021/11/04 16:28:58;;;;;;;15.20;9.53;;;18.30;61.10;;;;;;10408256;28;20221;-69
2021/11/04 16:34:20;;;;;;;6.17;4.80;;;18.30;61.20;;;;;;10410449;28;20205;-70
2021/11/04 16:39:43;;;;;;;5.30;4.50;;;18.30;61.30;;;;;;10408491;28;20224;-69
2021/11/04 16:45:10;;;;;;;4.40;3.80;;;18.20;61.40;;;;;;10407583;28;20669;-70
2021/11/04 16:50:34;;;;;;;4.00;3.50;;;18.20;61.40;;;;;;10378448;28;20197;-69
2021/11/04 16:55:56;;;;;;;3.97;3.37;;;18.20;61.50;;;;;;10408214;28;20612;-69
2021/11/04 17:01:22;;;;;;;3.73;3.30;;;18.20;61.60;;;;;;10409245;28;20213;-69
2021/11/04 17:06:44;;;;;;;3.67;3.37;;;18.30;61.50;;;;;;10403009;28;20206;-69
2021/11/04 17:12:07;;;;;;;2.83;2.57;;;18.30;61.20;;;;;;10403162;28;20205;-69
2021/11/04 17:17:31;;;;;;;4.53;3.90;;;18.30;60.70;;;;;;10407479;28;20577;-70
2021/11/04 17:22:53;;;;;;;5.77;4.37;;;18.40;60.50;;;;;;10406218;28;20216;-69
2021/11/04 17:28:15;;;;;;;4.50;3.23;;;18.40;60.20;;;;;;10405626;28;20243;-69
2021/11/04 17:33:39;;;;;;;3.80;3.10;;;18.50;60.20;;;;;;10414770;28;20225;-69
2021/11/04 17:39:01;;;;;;;3.50;3.10;;;18.50;60.10;;;;;;10414742;28;20228;-69
2021/11/04 17:44:23;;;;;;;3.27;2.73;;;18.50;60.00;;;;;;10415116;28;20205;-69
2021/11/04 17:49:48;;;;;;;3.33;2.80;;;18.50;60.00;;;;;;10414928;28;20221;-68
2021/11/04 17:55:11;;;;;;;3.33;3.03;;;18.50;60.00;;;;;;10415697;28;20213;-68
2021/11/04 18:00:34;;;;;;;2.93;2.63;;;18.50;59.90;;;;;;10414845;28;20241;-69
2021/11/04 18:05:57;;;;;;;3.43;2.70;;;18.50;60.00;;;;;;10439271;22;20604;-66
2021/11/04 18:11:20;;;;;;;5.47;4.10;;;18.50;60.00;;;;;;10433936;28;20211;-65
2021/11/04 18:16:44;;;;;;;6.67;5.03;;;18.40;60.10;;;;;;10422390;28;20225;-66
2021/11/04 18:22:07;;;;;;;5.53;4.20;;;18.40;60.30;;;;;;10422677;28;20687;-66
2021/11/04 18:27:30;;;;;;;4.93;3.93;;;18.40;60.40;;;;;;10413607;28;20213;-66
2021/11/04 18:32:52;;;;;;;4.20;3.80;;;18.40;60.40;;;;;;10413306;28;20704;-66
2021/11/04 18:38:16;;;;;;;4.63;3.53;;;18.40;60.70;;;;;;10412970;28;20233;-66
2021/11/04 18:43:38;;;;;;;3.70;3.37;;;18.50;60.70;;;;;;10397644;28;20581;-66
2021/11/04 18:49:00;;;;;;;5.77;3.60;;;18.40;60.70;;;;;;10410250;28;20216;-67
2021/11/04 18:54:24;;;;;;;3.43;3.13;;;18.40;60.80;;;;;;10412374;28;20228;-67
2021/11/04 18:59:47;;;;;;;3.17;2.87;;;18.40;61.00;;;;;;10408192;28;20217;-66
2021/11/04 19:05:09;;;;;;;3.30;3.00;;;18.30;61.10;;;;;;10418335;28;20715;-66
2021/11/04 19:10:33;;;;;;;5.23;3.00;;;18.40;61.10;;;;;;10380998;28;20202;-65
2021/11/04 19:15:55;;;;;;;3.47;3.10;;;18.40;60.90;;;;;;10371314;28;20301;-66
2021/11/04 19:21:18;;;;;;;4.20;3.47;;;18.40;60.60;;;;;;10376941;28;20194;-66
2021/11/04 19:26:42;;;;;;;10.50;7.83;;;18.50;60.30;;;;;;10429570;28;20214;-65
2021/11/04 19:32:05;;;;;;;6.03;4.90;;;18.50;60.20;;;;;;10409942;28;20201;-66
2021/11/04 19:37:27;;;;;;;6.27;4.83;;;18.50;60.20;;;;;;10421810;28;20218;-66
2021/11/04 19:42:50;;;;;;;7.83;6.13;;;18.50;60.30;;;;;;10370810;28;20199;-66
2021/11/04 19:48:12;;;;;;;16.23;10.93;;;18.50;60.40;;;;;;10370881;28;20214;-66
2021/11/04 19:53:35;;;;;;;9.03;6.40;;;18.40;60.50;;;;;;10370340;28;20201;-66
2021/11/04 19:58:58;;;;;;;6.30;4.93;;;18.40;61.20;;;;;;10368393;28;20230;-66
2021/11/04 20:04:21;;;;;;;10.67;7.23;;;18.40;61.40;;;;;;10377073;28;20234;-66
2021/11/04 20:09:43;;;;;;;9.17;7.10;;;18.40;61.00;;;;;;10373305;28;20199;-67
2021/11/04 20:15:08;;;;;;;10.97;8.70;;;18.30;60.90;;;;;;10375077;28;20813;-66
2021/11/04 20:20:30;;;;;;;10.73;8.17;;;18.30;60.90;;;;;;10374641;28;20194;-66
2021/11/04 20:25:53;;;;;;;7.57;6.10;;;18.30;61.00;;;;;;10387273;28;20224;-66
2021/11/04 20:31:16;;;;;;;7.57;5.97;;;18.30;61.20;;;;;;10393299;28;20194;-65
2021/11/04 20:36:39;;;;;;;6.37;5.30;;;18.30;61.20;;;;;;10388132;28;20236;-67
2021/11/04 20:42:01;;;;;;;5.20;4.60;;;18.30;61.30;;;;;;10388880;28;20237;-67
2021/11/04 20:47:25;;;;;;;7.07;5.73;;;18.30;61.40;;;;;;10392897;28;20388;-65
2021/11/04 20:52:48;;;;;;;8.33;6.70;;;18.30;61.30;;;;;;10408434;28;20200;-66
2021/11/04 20:58:11;;;;;;;7.17;5.70;;;18.30;61.30;;;;;;10454183;28;20217;-66
2021/11/04 21:03:35;;;;;;;5.20;4.70;;;18.20;61.10;;;;;;10452501;28;20221;-65
2021/11/04 21:08:57;;;;;;;8.67;6.50;;;18.30;60.90;;;;;;10376664;28;20569;-67
2021/11/04 21:14:19;;;;;;;6.13;5.00;;;18.30;60.70;;;;;;10377335;28;20214;-67
2021/11/04 21:19:43;;;;;;;7.30;5.70;;;18.40;60.60;;;;;;10375430;28;20682;-67
2021/11/04 21:25:07;;;;;;;6.40;5.53;;;18.40;60.20;;;;;;10428324;28;20213;-65
2021/11/04 21:30:29;;;;;;;5.60;4.40;;;18.40;60.00;;;;;;10375342;28;20573;-65
2021/11/04 21:35:53;;;;;;;4.80;4.30;;;18.40;59.90;;;;;;10374698;28;20218;-66
2021/11/04 21:41:15;;;;;;;6.13;4.30;;;18.40;60.00;;;;;;10387985;28;20195;-66
2021/11/04 21:46:38;;;;;;;6.17;4.30;;;18.40;60.30;;;;;;10394610;28;20225;-66
2021/11/04 21:52:02;;;;;;;4.70;3.60;;;18.30;60.40;;;;;;10426286;28;20615;-66
2021/11/04 21:57:26;;;;;;;5.13;4.20;;;18.30;60.70;;;;;;10455884;28;20223;-66
2021/11/04 22:02:52;;;;;;;4.30;3.90;;;18.30;60.80;;;;;;10447564;28;20260;-67
2021/11/04 22:08:15;;;;;;;3.90;3.23;;;18.20;60.90;;;;;;10400595;28;20362;-66
2021/11/04 22:13:38;;;;;;;3.90;3.50;;;18.20;61.10;;;;;;10378517;28;20190;-66
2021/11/04 22:19:00;;;;;;;3.57;2.60;;;18.10;61.10;;;;;;10377683;28;20617;-66
2021/11/04 22:24:24;;;;;;;4.37;3.37;;;18.10;61.20;;;;;;10430249;28;20216;-66
2021/11/04 22:29:46;;;;;;;4.20;3.13;;;18.10;61.20;;;;;;10418670;28;20201;-67
2021/11/04 22:35:08;;;;;;;4.20;2.93;;;18.10;61.40;;;;;;10427577;28;20226;-66
2021/11/04 22:40:32;;;;;;;4.43;3.20;;;18.10;61.40;;;;;;10398913;28;20210;-66
2021/11/04 22:45:57;;;;;;;3.30;3.00;;;18.10;61.20;;;;;;10385454;28;20226;-66
2021/11/04 22:51:20;;;;;;;3.40;2.70;;;18.10;61.00;;;;;;10376171;28;20574;-66
2021/11/04 22:56:44;;;;;;;3.90;2.83;;;18.10;60.90;;;;;;10398729;28;20217;-66
2021/11/04 23:02:11;;;;;;;3.40;2.70;;;18.10;60.80;;;;;;10414477;28;20201;-66
2021/11/04 23:07:33;;;;;;;3.67;2.63;;;18.10;60.80;;;;;;10404017;28;20245;-66
2021/11/04 23:12:56;;;;;;;3.03;2.57;;;18.10;60.90;;;;;;10398416;28;20197;-66
2021/11/04 23:18:21;;;;;;;3.43;2.53;;;18.10;60.80;;;;;;10396363;28;20721;-66
2021/11/04 23:23:43;;;;;;;3.80;2.77;;;18.10;60.90;;;;;;10380269;28;20198;-67
2021/11/04 23:29:07;;;;;;;4.20;2.70;;;18.10;61.00;;;;;;10411096;28;20197;-66
2021/11/04 23:34:31;;;;;;;4.53;2.33;;;18.10;61.10;;;;;;10410994;28;20222;-65
2021/11/04 23:39:53;;;;;;;2.70;2.43;;;18.00;61.10;;;;;;10409883;28;20224;-66
2021/11/04 23:45:16;;;;;;;2.77;2.20;;;18.00;61.20;;;;;;10410443;28;20221;-66
2021/11/04 23:50:41;;;;;;;4.03;2.50;;;18.00;61.30;;;;;;10417575;28;20193;-67
2021/11/04 23:56:04;;;;;;;2.80;2.40;;;18.00;61.20;;;;;;10440135;28;20209;-66
